Time;durP1;ratioP1;P1;durP2;ratioP2;P2;SDS_P1;SDS_P2;PMS_P1;PMS_P2;Temp;Humidity;BMP_temperature;BMP_pressure;BME280_temperature;BME280_humidity;BME280_pressure;Samples;Min_cycle;Max_cycle;Signal;HPM_P1;HPM_P2
2023/06/15 00:02:15;;;;;;;2.00;1.90;;;16.50;95.40;;;;;;5051829;28;20480;-71
2023/06/15 00:04:41;;;;;;;2.07;1.80;;;16.50;95.50;;;;;;5051042;28;20202;-72
2023/06/15 00:07:07;;;;;;;2.60;1.53;;;16.50;96.80;;;;;;5050981;28;20582;-71
2023/06/15 00:09:32;;;;;;;1.70;1.60;;;16.40;97.10;;;;;;5051273;28;20213;-72
2023/06/15 00:11:58;;;;;;;2.70;2.50;;;16.40;97.70;;;;;;5051457;28;20413;-72
2023/06/15 00:14:23;;;;;;;2.20;2.00;;;16.40;98.40;;;;;;5049700;28;20646;-71
2023/06/15 00:16:52;;;;;;;2.13;1.97;;;16.30;99.10;;;;;;5051506;28;20182;-72
2023/06/15 00:19:19;;;;;;;2.13;1.70;;;16.30;99.10;;;;;;5051445;28;20555;-72
2023/06/15 00:21:47;;;;;;;2.70;2.30;;;16.30;99.40;;;;;;5049903;28;20455;-72
2023/06/15 00:24:14;;;;;;;2.50;2.30;;;16.30;99.90;;;;;;5050972;28;20479;-72
2023/06/15 00:26:40;;;;;;;2.40;2.07;;;16.20;99.90;;;;;;5054707;28;20497;-72
2023/06/15 00:29:05;;;;;;;2.40;2.20;;;16.20;99.90;;;;;;5055362;28;20432;-72
2023/06/15 00:31:31;;;;;;;2.57;2.30;;;16.20;99.90;;;;;;5054976;28;20166;-71
2023/06/15 00:33:57;;;;;;;2.20;2.00;;;16.20;99.90;;;;;;5054971;28;20167;-70
2023/06/15 00:36:22;;;;;;;2.90;2.70;;;16.10;99.90;;;;;;5054798;28;20586;-71
2023/06/15 00:38:48;;;;;;;3.57;2.30;;;16.10;99.90;;;;;;5054999;28;20171;-71
2023/06/15 00:41:13;;;;;;;2.53;2.33;;;16.10;99.90;;;;;;5036953;28;20174;-70
2023/06/15 00:43:40;;;;;;;3.00;2.23;;;16.00;99.90;;;;;;5054786;28;20174;-71
2023/06/15 00:46:05;;;;;;;6.23;2.20;;;16.00;99.90;;;;;;5054811;28;20218;-71
2023/06/15 00:48:31;;;;;;;2.20;2.00;;;16.00;99.90;;;;;;5054871;28;20483;-71
2023/06/15 00:50:57;;;;;;;5.43;2.57;;;15.90;99.90;;;;;;5054573;28;20166;-72
2023/06/15 00:53:23;;;;;;;2.10;1.90;;;15.90;99.90;;;;;;5054591;28;20236;-70
2023/06/15 00:55:49;;;;;;;2.23;2.00;;;15.80;99.90;;;;;;5054402;28;20461;-71
2023/06/15 00:58:17;;;;;;;2.40;2.20;;;15.70;99.90;;;;;;5054791;28;20402;-71
2023/06/15 01:00:48;;;;;;;2.57;2.37;;;15.70;99.90;;;;;;5054656;28;20420;-70
2023/06/15 01:03:15;;;;;;;3.20;2.37;;;15.60;99.90;;;;;;5057461;28;20414;-71
2023/06/15 01:05:44;;;;;;;2.60;1.50;;;15.60;99.90;;;;;;5056866;28;20456;-70
2023/06/15 01:08:11;;;;;;;2.83;2.10;;;15.60;99.90;;;;;;5053883;28;20409;-70
2023/06/15 01:10:37;;;;;;;2.73;2.10;;;15.50;99.90;;;;;;5053854;28;20431;-72
2023/06/15 01:13:07;;;;;;;5.13;1.77;;;15.40;99.90;;;;;;5054247;28;20413;-71
2023/06/15 01:15:34;;;;;;;2.20;2.00;;;15.40;99.90;;;;;;5053577;28;20430;-71
2023/06/15 01:18:03;;;;;;;2.37;2.07;;;15.40;99.90;;;;;;5054334;28;20410;-72
2023/06/15 01:20:42;;;;;;;2.30;2.10;;;15.30;99.90;;;;;;5057919;28;20413;-72
2023/06/15 01:23:41;;;;;;;2.37;2.07;;;15.30;99.90;;;;;;5059041;28;20421;-72
2023/06/15 01:26:10;;;;;;;3.80;1.90;;;15.30;99.90;;;;;;5060119;28;20475;-72
2023/06/15 01:28:41;;;;;;;1.93;1.83;;;15.30;99.90;;;;;;5054581;28;20410;-71
2023/06/15 01:31:09;;;;;;;3.30;1.93;;;15.20;99.90;;;;;;5053553;28;20405;-74
2023/06/15 01:33:46;;;;;;;2.53;2.33;;;15.20;99.90;;;;;;5035822;28;20398;-71
2023/06/15 01:36:12;;;;;;;1.80;1.70;;;15.10;99.90;;;;;;5053725;28;20457;-70
2023/06/15 01:38:38;;;;;;;1.97;1.80;;;15.10;99.90;;;;;;5035162;28;20425;-72
2023/06/15 01:41:06;;;;;;;3.00;1.90;;;15.10;99.90;;;;;;5053872;28;20202;-72
2023/06/15 01:43:34;;;;;;;2.00;1.77;;;15.10;99.90;;;;;;5041184;28;20401;-72
2023/06/15 01:46:00;;;;;;;1.70;1.60;;;15.10;99.90;;;;;;5054294;28;20468;-72
2023/06/15 01:48:27;;;;;;;1.80;1.70;;;15.00;99.90;;;;;;5053829;28;21180;-71
2023/06/15 01:50:53;;;;;;;2.60;2.40;;;15.00;99.90;;;;;;5052965;28;20417;-72
2023/06/15 01:53:19;;;;;;;2.20;2.00;;;15.00;99.90;;;;;;5036002;28;20409;-70
2023/06/15 01:55:44;;;;;;;2.07;1.93;;;14.90;99.90;;;;;;5053812;28;20523;-71
2023/06/15 01:58:15;;;;;;;1.87;1.77;;;14.90;99.90;;;;;;5053490;28;20197;-70
2023/06/15 02:00:44;;;;;;;2.27;2.00;;;14.80;99.90;;;;;;5053513;28;20194;-70
2023/06/15 02:03:11;;;;;;;2.50;2.30;;;14.80;99.90;;;;;;5053271;28;20412;-71
2023/06/15 02:05:39;;;;;;;2.30;2.10;;;14.80;99.90;;;;;;5052890;28;20465;-71
2023/06/15 02:08:11;;;;;;;3.10;2.23;;;14.80;99.90;;;;;;5053478;28;20413;-71
2023/06/15 02:10:37;;;;;;;1.90;1.70;;;14.70;99.90;;;;;;5052556;28;20492;-71
2023/06/15 02:13:06;;;;;;;2.00;1.80;;;14.70;99.90;;;;;;5053196;28;20401;-71
2023/06/15 02:15:31;;;;;;;2.33;2.10;;;14.70;99.90;;;;;;5052647;28;20938;-70
2023/06/15 02:18:02;;;;;;;2.97;2.40;;;14.70;99.90;;;;;;5053052;28;20456;-71
2023/06/15 02:20:28;;;;;;;2.00;1.80;;;14.70;99.90;;;;;;5053063;28;20193;-70
2023/06/15 02:22:56;;;;;;;1.93;1.80;;;14.70;99.90;;;;;;5053000;28;20410;-71
2023/06/15 02:25:23;;;;;;;3.10;2.30;;;14.60;99.90;;;;;;5052481;28;20555;-70
2023/06/15 02:27:49;;;;;;;2.37;2.17;;;14.60;99.90;;;;;;5053060;28;20405;-71
2023/06/15 02:30:14;;;;;;;1.87;1.70;;;14.60;99.90;;;;;;5052729;28;20536;-71
2023/06/15 02:32:42;;;;;;;3.57;1.93;;;14.60;99.90;;;;;;5052871;28;20185;-71
2023/06/15 02:35:10;;;;;;;2.30;2.20;;;14.60;99.90;;;;;;5052384;28;20194;-72
2023/06/15 02:37:35;;;;;;;2.30;2.10;;;14.50;99.90;;;;;;5053495;28;20424;-71
2023/06/15 02:40:04;;;;;;;2.10;1.90;;;14.50;99.90;;;;;;5054320;28;20658;-72
2023/06/15 02:42:29;;;;;;;2.40;2.10;;;14.50;99.90;;;;;;5052777;28;20173;-71
2023/06/15 02:44:55;;;;;;;3.70;1.90;;;14.50;99.90;;;;;;5052873;28;20452;-71
2023/06/15 02:47:21;;;;;;;2.50;2.30;;;14.50;99.90;;;;;;5053290;28;20697;-71
2023/06/15 02:49:46;;;;;;;2.07;1.90;;;14.50;99.90;;;;;;5052002;28;20216;-71
2023/06/15 02:52:14;;;;;;;2.30;2.10;;;14.50;99.90;;;;;;5052617;28;20181;-71
2023/06/15 02:54:39;;;;;;;2.47;2.27;;;14.50;99.90;;;;;;5052427;28;20690;-70
2023/06/15 02:57:06;;;;;;;2.20;2.07;;;14.40;99.90;;;;;;5052319;28;20417;-71
2023/06/15 02:59:33;;;;;;;2.20;2.00;;;14.40;99.90;;;;;;5054081;28;20170;-71
2023/06/15 03:02:00;;;;;;;2.63;1.87;;;14.40;99.90;;;;;;5052618;28;20486;-72
2023/06/15 03:04:27;;;;;;;2.27;2.07;;;14.40;99.90;;;;;;5051838;28;20453;-71
2023/06/15 03:06:53;;;;;;;2.33;2.13;;;14.40;99.90;;;;;;5052967;28;20504;-71
2023/06/15 03:09:20;;;;;;;3.30;2.47;;;14.40;99.90;;;;;;5052579;28;20463;-70
2023/06/15 03:11:46;;;;;;;3.10;2.30;;;14.40;99.90;;;;;;5052440;28;20163;-70
2023/06/15 03:14:11;;;;;;;2.50;2.30;;;14.40;99.90;;;;;;5033753;28;20419;-69
2023/06/15 03:16:40;;;;;;;2.30;2.00;;;14.40;99.90;;;;;;5052484;28;20605;-71
2023/06/15 03:19:06;;;;;;;2.17;1.97;;;14.30;99.90;;;;;;5035021;28;20648;-70
2023/06/15 03:21:32;;;;;;;2.27;1.80;;;14.40;99.90;;;;;;5052031;28;20413;-72
2023/06/15 03:23:58;;;;;;;2.80;2.60;;;14.30;99.90;;;;;;5051934;28;20416;-72
2023/06/15 03:26:26;;;;;;;2.77;2.47;;;14.40;99.90;;;;;;5052237;28;20199;-72
2023/06/15 03:28:53;;;;;;;2.00;1.80;;;14.30;99.90;;;;;;5052173;28;20187;-72
2023/06/15 03:31:19;;;;;;;2.40;2.20;;;14.40;99.90;;;;;;5051778;28;20441;-73
2023/06/15 03:33:46;;;;;;;2.13;1.93;;;14.30;99.90;;;;;;5053334;28;20409;-71
2023/06/15 03:36:13;;;;;;;2.60;2.30;;;14.40;99.90;;;;;;5054572;28;20544;-71
2023/06/15 03:38:42;;;;;;;2.47;1.83;;;14.30;99.90;;;;;;5034100;28;20410;-72
2023/06/15 03:41:08;;;;;;;2.30;2.10;;;14.40;99.90;;;;;;5051442;28;20432;-71
2023/06/15 03:43:37;;;;;;;2.07;1.90;;;14.40;99.90;;;;;;5034581;28;20909;-71
2023/06/15 03:46:04;;;;;;;2.60;2.30;;;14.40;99.90;;;;;;5051357;28;20234;-70
2023/06/15 03:48:30;;;;;;;3.03;1.90;;;14.40;99.90;;;;;;5053004;28;20547;-71
2023/06/15 03:50:56;;;;;;;3.50;3.13;;;14.40;99.90;;;;;;5052417;28;20435;-70
2023/06/15 03:53:22;;;;;;;2.50;2.17;;;14.50;99.90;;;;;;5051523;28;20177;-71
2023/06/15 03:55:48;;;;;;;2.57;2.40;;;14.50;99.90;;;;;;5054765;28;20429;-72
2023/06/15 03:58:14;;;;;;;2.40;2.20;;;14.50;99.90;;;;;;5054745;28;20413;-71
2023/06/15 04:00:40;;;;;;;3.70;2.57;;;14.50;99.90;;;;;;5053581;28;20186;-72
2023/06/15 04:03:06;;;;;;;3.07;2.33;;;14.50;99.90;;;;;;5055338;28;20440;-71
2023/06/15 04:05:32;;;;;;;3.03;2.83;;;14.60;99.90;;;;;;5055697;28;20903;-71
2023/06/15 04:07:59;;;;;;;2.93;2.43;;;14.60;99.90;;;;;;5059603;28;20448;-72
2023/06/15 04:10:25;;;;;;;2.90;2.30;;;14.60;99.90;;;;;;5055853;28;20163;-72
2023/06/15 04:12:51;;;;;;;3.60;2.00;;;14.60;99.90;;;;;;5055458;28;20432;-71
2023/06/15 04:15:16;;;;;;;2.10;1.97;;;14.70;99.90;;;;;;5053871;28;20555;-70
2023/06/15 04:17:42;;;;;;;2.30;2.10;;;14.70;99.90;;;;;;5055315;28;20210;-71
2023/06/15 04:20:08;;;;;;;2.10;2.00;;;14.80;99.90;;;;;;5055472;28;20178;-71
2023/06/15 04:22:34;;;;;;;2.00;1.73;;;14.80;99.90;;;;;;5054966;28;20202;-70
2023/06/15 04:25:00;;;;;;;2.70;1.90;;;14.90;99.90;;;;;;5054765;28;20492;-70
2023/06/15 04:27:27;;;;;;;2.00;1.80;;;14.90;99.90;;;;;;5054829;28;20175;-70
2023/06/15 04:29:53;;;;;;;2.60;2.40;;;15.00;99.90;;;;;;5055156;28;20655;-70
2023/06/15 04:32:19;;;;;;;2.37;2.17;;;15.10;99.90;;;;;;5036812;28;20910;-70
2023/06/15 04:34:45;;;;;;;2.07;1.77;;;15.10;99.90;;;;;;5053828;28;20490;-71
2023/06/15 04:37:16;;;;;;;2.40;2.23;;;15.30;99.90;;;;;;5036919;28;20621;-71
2023/06/15 04:39:42;;;;;;;2.10;1.90;;;15.30;99.90;;;;;;5041255;28;20523;-71
2023/06/15 04:42:09;;;;;;;2.30;1.93;;;15.40;99.90;;;;;;5035300;28;20421;-71
2023/06/15 04:44:35;;;;;;;4.00;2.33;;;15.50;99.90;;;;;;5016729;28;20191;-72
2023/06/15 04:47:02;;;;;;;4.00;2.00;;;15.60;99.90;;;;;;5033989;28;20406;-70
2023/06/15 04:49:28;;;;;;;2.63;2.40;;;15.70;99.90;;;;;;5040076;28;20744;-72
2023/06/15 04:51:53;;;;;;;4.40;3.23;;;15.80;99.90;;;;;;5035135;28;20425;-70
2023/06/15 04:54:19;;;;;;;2.43;2.10;;;15.90;99.90;;;;;;5033265;28;20172;-71
2023/06/15 04:56:44;;;;;;;2.43;2.23;;;16.00;99.90;;;;;;5034761;28;20191;-70
2023/06/15 04:59:10;;;;;;;3.00;2.60;;;16.20;99.90;;;;;;5034395;28;20637;-71
2023/06/15 05:01:36;;;;;;;3.20;2.63;;;16.30;99.90;;;;;;5034723;28;20203;-71
2023/06/15 05:04:01;;;;;;;2.73;2.50;;;16.40;99.90;;;;;;5034280;28;20717;-71
2023/06/15 05:06:27;;;;;;;2.20;1.90;;;16.50;99.90;;;;;;5034506;28;20206;-71
2023/06/15 05:08:52;;;;;;;3.50;2.50;;;16.70;99.90;;;;;;5034515;28;20164;-72
2023/06/15 05:11:18;;;;;;;3.27;2.90;;;16.80;99.90;;;;;;5033141;28;20262;-72
2023/06/15 05:13:43;;;;;;;3.20;2.40;;;16.90;99.90;;;;;;5032811;28;20180;-71
2023/06/15 05:16:09;;;;;;;2.50;2.30;;;17.00;99.90;;;;;;5034575;28;20204;-71
2023/06/15 05:18:34;;;;;;;2.23;2.03;;;17.20;99.90;;;;;;5034904;28;20179;-72
2023/06/15 05:21:00;;;;;;;2.40;2.20;;;17.40;99.90;;;;;;5033944;28;20178;-71
2023/06/15 05:23:26;;;;;;;3.00;2.67;;;17.60;99.90;;;;;;5033735;28;20652;-71
2023/06/15 05:25:52;;;;;;;2.60;2.40;;;17.70;99.90;;;;;;5032378;28;20214;-71
2023/06/15 05:28:18;;;;;;;3.10;2.80;;;17.90;99.90;;;;;;5034091;28;20422;-71
2023/06/15 05:30:44;;;;;;;2.90;2.67;;;18.00;99.90;;;;;;5034182;28;20274;-71
2023/06/15 05:33:10;;;;;;;2.50;2.27;;;18.10;99.90;;;;;;5032593;28;20425;-73
2023/06/15 05:35:36;;;;;;;2.30;2.10;;;18.30;99.90;;;;;;5033787;28;21052;-73
2023/06/15 05:38:01;;;;;;;5.10;4.57;;;18.40;99.90;;;;;;5033956;28;20242;-73
2023/06/15 05:40:27;;;;;;;7.57;6.20;;;18.60;99.90;;;;;;5032796;28;20179;-72
2023/06/15 05:42:54;;;;;;;6.90;3.00;;;18.70;99.90;;;;;;5037709;28;20540;-73
2023/06/15 05:45:20;;;;;;;2.90;2.70;;;18.80;99.90;;;;;;5017999;28;20318;-74
2023/06/15 05:47:46;;;;;;;4.00;2.77;;;18.90;99.90;;;;;;5016037;28;20505;-69
2023/06/15 05:50:11;;;;;;;3.03;2.47;;;19.10;99.90;;;;;;5033640;28;20459;-68
2023/06/15 05:52:37;;;;;;;3.90;3.00;;;19.20;99.90;;;;;;5033655;28;20179;-68
2023/06/15 05:55:02;;;;;;;4.93;3.20;;;19.30;99.90;;;;;;5033414;28;20188;-68
2023/06/15 05:57:28;;;;;;;3.37;2.87;;;19.50;99.90;;;;;;5033432;28;20261;-69
2023/06/15 05:59:54;;;;;;;3.10;2.80;;;19.70;99.90;;;;;;5033698;28;20199;-68
2023/06/15 06:02:19;;;;;;;3.97;3.00;;;20.00;99.90;;;;;;5033228;28;20818;-69
2023/06/15 06:04:45;;;;;;;2.73;2.53;;;20.50;99.90;;;;;;5032654;28;20209;-68
2023/06/15 06:07:10;;;;;;;3.20;2.70;;;21.30;99.90;;;;;;5032830;28;20210;-68
2023/06/15 06:09:37;;;;;;;6.20;3.90;;;21.90;99.90;;;;;;5033058;28;20164;-69
2023/06/15 06:12:03;;;;;;;8.83;6.87;;;23.00;99.90;;;;;;5033202;28;20214;-69
2023/06/15 06:14:29;;;;;;;4.73;4.23;;;24.10;99.90;;;;;;5032750;28;20406;-69
2023/06/15 06:16:55;;;;;;;2.97;2.67;;;25.10;97.40;;;;;;5033243;28;20867;-69
2023/06/15 06:22:43;;;;;;;3.20;2.50;;;27.00;81.40;;;;;;5028493;28;20390;-68
2023/06/15 06:25:09;;;;;;;3.90;2.90;;;27.80;70.00;;;;;;5032570;28;21025;-69
2023/06/15 07:27:31;;;;;;;3.47;3.10;;;35.40;34.30;;;;;;5733460;22;20556;-69
2023/06/15 07:29:57;;;;;;;4.27;3.30;;;35.60;33.60;;;;;;5024134;28;1219646;-71
2023/06/15 07:32:22;;;;;;;3.37;2.90;;;36.30;33.60;;;;;;5068347;28;20681;-69
2023/06/15 07:34:48;;;;;;;3.40;3.17;;;37.00;33.30;;;;;;5067611;28;20162;-69
2023/06/15 07:37:13;;;;;;;2.70;2.30;;;36.80;31.20;;;;;;5068050;28;20189;-70
2023/06/15 07:39:39;;;;;;;3.90;3.00;;;37.10;31.40;;;;;;5068421;28;20193;-70
2023/06/15 07:42:06;;;;;;;3.37;3.17;;;37.50;30.30;;;;;;5068299;28;20166;-69
2023/06/15 07:44:31;;;;;;;5.77;3.03;;;37.80;30.30;;;;;;5068313;28;20863;-70
2023/06/15 07:46:57;;;;;;;2.80;2.60;;;38.10;29.70;;;;;;5067936;28;20482;-69
2023/06/15 07:49:22;;;;;;;2.97;2.77;;;38.60;29.70;;;;;;5050411;28;20221;-69
2023/06/15 07:51:47;;;;;;;3.40;3.10;;;39.10;29.20;;;;;;5068240;28;20167;-69
2023/06/15 07:54:13;;;;;;;3.50;3.20;;;39.30;29.30;;;;;;5068130;28;20667;-70
2023/06/15 07:56:38;;;;;;;4.40;3.57;;;40.00;28.60;;;;;;5067767;28;20167;-70
2023/06/15 08:01:53;;;;;;;3.47;3.17;;;39.90;27.20;;;;;;5509284;22;20306;-67
2023/06/15 08:04:18;;;;;;;3.10;2.57;;;39.80;27.40;;;;;;5066994;28;20467;-67
2023/06/15 08:06:44;;;;;;;3.33;3.03;;;40.70;27.80;;;;;;5053909;28;20400;-68
2023/06/15 08:09:11;;;;;;;3.00;2.80;;;41.10;26.30;;;;;;5054820;28;20186;-68
2023/06/15 08:11:37;;;;;;;5.50;2.90;;;41.60;25.70;;;;;;5054291;28;20183;-67
2023/06/15 08:14:02;;;;;;;3.13;2.80;;;42.00;25.60;;;;;;5054307;28;20461;-68
2023/06/15 08:16:28;;;;;;;4.00;3.70;;;42.30;25.20;;;;;;5054539;28;20531;-68
2023/06/15 08:18:53;;;;;;;3.50;3.20;;;42.70;24.80;;;;;;5054388;28;20186;-67
2023/06/15 08:21:19;;;;;;;3.17;2.87;;;42.60;24.60;;;;;;5054111;28;20201;-67
2023/06/15 08:23:44;;;;;;;3.70;3.40;;;42.90;24.70;;;;;;5053816;28;20201;-66
2023/06/15 08:26:10;;;;;;;4.07;2.80;;;43.40;24.50;;;;;;5054304;28;20167;-66
2023/06/15 08:28:36;;;;;;;3.17;2.90;;;42.50;23.70;;;;;;5054336;28;20660;-67
2023/06/15 08:31:03;;;;;;;2.97;2.77;;;41.90;24.00;;;;;;5053879;28;20316;-67
2023/06/15 08:33:29;;;;;;;3.10;2.90;;;42.20;24.10;;;;;;5054150;28;20167;-66
2023/06/15 08:35:54;;;;;;;3.13;2.93;;;43.20;24.60;;;;;;5054071;28;20915;-67
2023/06/15 08:38:20;;;;;;;2.87;2.70;;;44.30;24.30;;;;;;5054142;28;20221;-67
2023/06/15 08:40:46;;;;;;;3.67;3.40;;;44.80;23.80;;;;;;5053631;28;20182;-67
2023/06/15 08:43:17;;;;;;;3.80;3.00;;;45.60;23.00;;;;;;5053901;28;20989;-68
2023/06/15 08:45:43;;;;;;;4.20;3.90;;;46.00;22.30;;;;;;5053911;28;20226;-66
2023/06/15 08:48:15;;;;;;;3.47;3.17;;;46.50;22.50;;;;;;5053895;28;20434;-66
2023/06/15 08:50:43;;;;;;;3.03;2.83;;;46.70;21.40;;;;;;5053558;28;20244;-66
2023/06/15 08:53:09;;;;;;;3.67;3.47;;;46.60;21.70;;;;;;5054412;28;20398;-66
2023/06/15 08:55:38;;;;;;;3.73;3.43;;;46.80;21.00;;;;;;5053807;28;20911;-66
2023/06/15 08:58:05;;;;;;;3.37;3.17;;;47.30;20.90;;;;;;5053473;28;20217;-66
2023/06/15 09:00:31;;;;;;;3.20;2.90;;;47.80;20.80;;;;;;5053054;28;20429;-66
2023/06/15 09:02:59;;;;;;;4.00;3.80;;;47.80;20.70;;;;;;5053337;28;20397;-67
2023/06/15 09:05:26;;;;;;;3.90;3.60;;;48.00;20.00;;;;;;5053625;28;20159;-67
2023/06/15 09:07:52;;;;;;;3.50;3.20;;;48.40;20.60;;;;;;5053622;28;20397;-67
2023/06/15 09:10:22;;;;;;;4.00;3.70;;;49.10;20.30;;;;;;5052907;28;20401;-67
2023/06/15 09:12:54;;;;;;;3.87;3.47;;;49.70;19.60;;;;;;5053227;28;20170;-67
2023/06/15 09:15:25;;;;;;;3.33;3.13;;;50.50;20.00;;;;;;5053399;28;20406;-67
2023/06/15 09:17:52;;;;;;;4.40;4.00;;;51.20;19.80;;;;;;5052149;28;20401;-67
2023/06/15 09:20:19;;;;;;;3.20;2.90;;;51.70;18.00;;;;;;5053074;28;20405;-67
2023/06/15 09:22:46;;;;;;;3.77;3.57;;;52.20;18.90;;;;;;5053237;28;20459;-66
2023/06/15 09:25:21;;;;;;;3.57;3.37;;;52.80;18.20;;;;;;5053246;28;20540;-67
2023/06/15 09:27:56;;;;;;;4.17;3.73;;;53.20;18.20;;;;;;5053064;28;20401;-67
2023/06/15 09:30:33;;;;;;;4.07;3.57;;;53.50;18.00;;;;;;5052630;28;20941;-67
2023/06/15 09:33:10;;;;;;;4.33;4.03;;;53.10;16.70;;;;;;5035190;28;20423;-66
2023/06/15 09:35:36;;;;;;;4.43;4.13;;;52.90;16.90;;;;;;5053057;28;20397;-67
2023/06/15 09:38:02;;;;;;;4.83;3.70;;;52.00;16.70;;;;;;5052974;28;20467;-67
2023/06/15 09:40:30;;;;;;;4.20;3.90;;;51.60;16.70;;;;;;5052640;28;20191;-67
2023/06/15 09:42:57;;;;;;;4.10;3.70;;;51.20;16.90;;;;;;5052702;28;20404;-67
2023/06/15 09:45:23;;;;;;;3.77;3.47;;;51.40;17.40;;;;;;5052781;28;20467;-67
2023/06/15 09:47:56;;;;;;;5.50;3.73;;;51.70;17.50;;;;;;5053131;28;20772;-67
2023/06/15 09:50:29;;;;;;;11.57;8.53;;;52.30;17.30;;;;;;5052194;28;20436;-67
2023/06/15 09:52:56;;;;;;;6.80;5.53;;;53.20;18.00;;;;;;5052551;28;20402;-67
2023/06/15 09:55:23;;;;;;;10.90;8.70;;;54.10;17.20;;;;;;5052629;28;20432;-67
2023/06/15 09:57:54;;;;;;;6.03;5.53;;;55.00;17.10;;;;;;5052597;28;20420;-67
2023/06/15 10:00:22;;;;;;;4.67;4.30;;;55.30;16.70;;;;;;5052294;28;20433;-66
2023/06/15 10:02:51;;;;;;;3.90;3.70;;;53.80;16.40;;;;;;5052320;28;20488;-66
2023/06/15 10:05:19;;;;;;;3.97;3.60;;;51.50;16.40;;;;;;5052294;28;20445;-66
2023/06/15 10:07:49;;;;;;;4.93;4.53;;;48.70;16.30;;;;;;5052462;28;20484;-67
2023/06/15 10:10:17;;;;;;;4.97;3.50;;;46.40;17.40;;;;;;5051964;28;20810;-67
2023/06/15 10:12:49;;;;;;;3.40;3.10;;;44.00;18.30;;;;;;5052394;28;20458;-66
2023/06/15 10:15:15;;;;;;;3.73;3.43;;;41.80;19.10;;;;;;5052313;28;20399;-67
2023/06/15 10:17:46;;;;;;;3.43;3.13;;;39.90;20.40;;;;;;5051959;28;20412;-66
2023/06/15 10:20:16;;;;;;;3.73;3.40;;;38.90;21.30;;;;;;5051910;28;20404;-66
2023/06/15 10:22:57;;;;;;;2.80;2.60;;;40.10;22.20;;;;;;5052288;28;20900;-66
2023/06/15 10:25:23;;;;;;;3.97;3.67;;;42.00;21.60;;;;;;5052212;28;20409;-67
2023/06/15 10:27:49;;;;;;;3.43;3.13;;;42.70;21.20;;;;;;5051799;28;20380;-66
2023/06/15 10:30:26;;;;;;;4.53;4.13;;;42.70;20.50;;;;;;5051583;28;20364;-66
2023/06/15 10:33:04;;;;;;;8.07;5.57;;;42.30;20.30;;;;;;5052059;28;20163;-66
2023/06/15 10:35:53;;;;;;;7.20;5.00;;;41.60;20.60;;;;;;5051925;28;20383;-66
2023/06/15 10:38:42;;;;;;;10.10;6.33;;;40.40;20.90;;;;;;5051781;28;20888;-66
2023/06/15 10:41:09;;;;;;;6.10;5.20;;;39.70;21.20;;;;;;5051567;28;20388;-66
2023/06/15 10:43:34;;;;;;;8.90;6.93;;;38.90;22.00;;;;;;5051819;28;20921;-66
2023/06/15 10:46:02;;;;;;;4.53;4.10;;;38.20;22.50;;;;;;5051869;28;20377;-66
2023/06/15 10:48:29;;;;;;;7.33;3.60;;;37.40;22.90;;;;;;5051836;28;20163;-67
2023/06/15 10:51:21;;;;;;;3.43;3.13;;;36.90;23.50;;;;;;5051417;28;20421;-67
2023/06/15 10:53:47;;;;;;;3.50;3.20;;;37.10;24.00;;;;;;5047383;28;20396;-67
2023/06/15 10:56:13;;;;;;;7.27;3.83;;;38.10;24.00;;;;;;5051667;28;20412;-67
2023/06/15 10:58:59;;;;;;;3.53;3.23;;;38.80;23.60;;;;;;5050796;28;20691;-67
2023/06/15 11:01:26;;;;;;;5.37;3.60;;;39.30;23.30;;;;;;5051051;28;20183;-67
2023/06/15 11:03:54;;;;;;;4.33;3.33;;;40.70;22.60;;;;;;5051417;28;20788;-67
2023/06/15 11:06:36;;;;;;;4.63;3.37;;;43.00;22.90;;;;;;5033673;28;20424;-67
2023/06/15 11:09:11;;;;;;;3.00;2.80;;;46.00;22.10;;;;;;5051598;28;20392;-67
2023/06/15 11:11:38;;;;;;;3.70;3.40;;;48.80;20.40;;;;;;5050952;28;20425;-67
2023/06/15 11:14:20;;;;;;;3.20;3.00;;;51.20;19.30;;;;;;5051469;28;20396;-68
2023/06/15 11:17:04;;;;;;;3.77;3.57;;;52.70;17.90;;;;;;5051361;28;20799;-68
2023/06/15 11:19:30;;;;;;;4.20;3.90;;;54.20;17.80;;;;;;5051437;28;20504;-68
2023/06/15 11:21:59;;;;;;;4.70;4.40;;;54.70;15.90;;;;;;5051144;28;20926;-68
2023/06/15 11:24:26;;;;;;;3.97;3.67;;;54.80;15.50;;;;;;5051466;28;20691;-68
2023/06/15 11:26:52;;;;;;;4.53;4.23;;;54.20;16.00;;;;;;5051304;28;20400;-68
2023/06/15 11:29:22;;;;;;;4.27;3.60;;;53.00;15.80;;;;;;5051261;28;20417;-68
2023/06/15 11:31:50;;;;;;;3.97;3.67;;;50.60;15.70;;;;;;5050823;28;20195;-68
2023/06/15 11:34:15;;;;;;;6.00;3.90;;;49.10;15.80;;;;;;5051445;28;20413;-68
2023/06/15 11:36:41;;;;;;;3.30;3.10;;;49.40;16.70;;;;;;5050998;28;20428;-68
2023/06/15 11:39:18;;;;;;;4.10;3.23;;;49.10;17.20;;;;;;5051339;28;20213;-68
2023/06/15 11:41:50;;;;;;;3.80;3.50;;;49.90;17.00;;;;;;5054070;28;20652;-68
2023/06/15 11:44:20;;;;;;;3.50;3.20;;;50.40;16.90;;;;;;5054848;28;20452;-67
2023/06/15 11:47:00;;;;;;;3.83;3.53;;;49.30;17.00;;;;;;5055168;28;20813;-67
2023/06/15 11:49:32;;;;;;;3.70;3.40;;;49.40;17.70;;;;;;5055075;28;20380;-68
2023/06/15 11:51:58;;;;;;;3.60;3.40;;;50.60;17.20;;;;;;5054646;28;20774;-68
2023/06/15 11:54:28;;;;;;;4.10;3.77;;;52.40;16.90;;;;;;5054853;28;20414;-68
2023/06/15 11:56:58;;;;;;;4.47;4.17;;;54.00;16.10;;;;;;5054972;28;20170;-68
2023/06/15 11:59:25;;;;;;;4.20;3.80;;;55.20;15.60;;;;;;5054817;28;20412;-68
2023/06/15 12:01:51;;;;;;;5.07;4.70;;;56.10;15.80;;;;;;5054410;28;20431;-68
2023/06/15 12:04:17;;;;;;;4.00;3.80;;;56.80;15.60;;;;;;5054318;28;21028;-68
2023/06/15 12:06:43;;;;;;;5.20;4.80;;;57.60;15.60;;;;;;5054664;28;20404;-68
2023/06/15 12:09:09;;;;;;;4.07;3.87;;;58.30;15.20;;;;;;5054721;28;20170;-68
2023/06/15 12:11:36;;;;;;;4.20;4.00;;;58.90;14.80;;;;;;5054400;28;20788;-68
2023/06/15 12:14:16;;;;;;;4.90;4.50;;;59.60;14.80;;;;;;5054599;28;20415;-68
2023/06/15 12:16:49;;;;;;;4.80;4.40;;;60.00;14.40;;;;;;5054723;28;20400;-68
2023/06/15 12:19:15;;;;;;;5.57;5.17;;;60.30;14.30;;;;;;5054566;28;20539;-68
2023/06/15 12:21:40;;;;;;;4.70;4.40;;;59.40;12.70;;;;;;5054068;28;20989;-68
2023/06/15 12:24:16;;;;;;;4.37;4.17;;;57.30;12.70;;;;;;5054386;28;20194;-68
2023/06/15 12:26:52;;;;;;;4.13;3.83;;;57.00;13.70;;;;;;5054191;28;20806;-68
2023/06/15 12:29:20;;;;;;;4.77;4.47;;;56.70;13.80;;;;;;5054339;28;20439;-68
2023/06/15 12:31:51;;;;;;;5.00;4.70;;;56.70;13.90;;;;;;5053859;28;20791;-68
2023/06/15 12:34:24;;;;;;;5.00;4.60;;;56.50;14.10;;;;;;5054248;28;20414;-68
2023/06/15 12:36:50;;;;;;;4.40;4.10;;;56.50;14.70;;;;;;5054234;28;20942;-68
2023/06/15 12:39:16;;;;;;;4.50;4.20;;;55.90;14.80;;;;;;5054126;28;20423;-68
2023/06/15 12:41:42;;;;;;;7.63;6.97;;;53.80;14.70;;;;;;5053734;28;20422;-67
2023/06/15 12:44:09;;;;;;;3.77;3.57;;;51.30;14.30;;;;;;5053980;28;20571;-67
2023/06/15 12:46:38;;;;;;;3.73;3.50;;;49.00;14.70;;;;;;5053927;28;20484;-67
2023/06/15 12:49:04;;;;;;;3.93;3.53;;;47.00;15.10;;;;;;5053865;28;20405;-67
2023/06/15 12:51:29;;;;;;;3.20;3.00;;;45.10;15.90;;;;;;5053384;28;20429;-67
2023/06/15 12:53:56;;;;;;;3.30;3.00;;;43.30;16.70;;;;;;5053733;28;20901;-67
2023/06/15 12:56:23;;;;;;;3.90;2.90;;;41.80;17.60;;;;;;5053887;28;20159;-67
2023/06/15 12:58:49;;;;;;;3.50;3.20;;;40.50;18.70;;;;;;5053714;28;20405;-66
2023/06/15 13:01:15;;;;;;;4.20;3.60;;;39.70;19.10;;;;;;5053343;28;20392;-67
2023/06/15 13:03:41;;;;;;;3.90;3.60;;;39.90;20.00;;;;;;5053405;28;20202;-67
2023/06/15 13:06:06;;;;;;;4.07;3.77;;;40.60;20.20;;;;;;5053595;28;20430;-67
2023/06/15 13:08:32;;;;;;;4.13;3.67;;;41.00;19.80;;;;;;5053577;28;20254;-67
2023/06/15 13:10:57;;;;;;;3.37;3.00;;;41.10;19.70;;;;;;5053185;28;20684;-67
2023/06/15 13:13:23;;;;;;;4.00;3.70;;;41.00;20.20;;;;;;5053534;28;20163;-67
2023/06/15 13:15:49;;;;;;;3.90;3.50;;;40.80;19.70;;;;;;5053643;28;20175;-67
2023/06/15 13:18:14;;;;;;;4.50;3.00;;;40.50;20.30;;;;;;5053643;28;20529;-67
2023/06/15 13:20:40;;;;;;;3.53;3.23;;;40.10;21.30;;;;;;5053099;28;20186;-67
2023/06/15 13:23:05;;;;;;;3.77;3.47;;;39.70;21.50;;;;;;5053219;28;20167;-67
2023/06/15 13:25:31;;;;;;;3.90;3.60;;;39.30;21.80;;;;;;5053319;28;20588;-67
2023/06/15 13:27:57;;;;;;;4.90;4.50;;;39.00;22.10;;;;;;5053221;28;20246;-67
2023/06/15 13:30:23;;;;;;;3.57;3.30;;;38.50;22.00;;;;;;5052873;28;20174;-68
2023/06/15 13:32:49;;;;;;;3.57;3.10;;;38.20;22.10;;;;;;5053155;28;20159;-67
2023/06/15 13:35:15;;;;;;;3.60;3.27;;;37.80;22.20;;;;;;5052625;28;20411;-67
2023/06/15 13:37:41;;;;;;;2.77;2.57;;;37.40;21.80;;;;;;5053000;28;20530;-67
2023/06/15 13:40:08;;;;;;;7.43;3.23;;;37.00;21.80;;;;;;5052660;28;20401;-67
2023/06/15 13:42:39;;;;;;;3.73;3.43;;;36.60;21.40;;;;;;5052858;28;20405;-67
2023/06/15 13:45:13;;;;;;;3.57;3.27;;;36.30;22.60;;;;;;5052824;28;20539;-67
2023/06/15 13:47:41;;;;;;;4.90;3.60;;;35.90;22.10;;;;;;5052882;28;20366;-67
2023/06/15 13:50:09;;;;;;;4.97;4.50;;;35.60;22.10;;;;;;5052459;28;20480;-67
2023/06/15 13:52:36;;;;;;;3.90;3.60;;;35.40;22.40;;;;;;5052653;28;20413;-67
2023/06/15 13:55:02;;;;;;;3.70;3.40;;;35.20;23.30;;;;;;5052590;28;20482;-67